createdAt,value
2022-08-01T00:01:59.191Z,2.00
2022-08-01T00:04:27.663Z,2.20
2022-08-01T00:06:56.089Z,2.00
2022-08-01T00:09:24.646Z,1.98
2022-08-01T00:11:59.977Z,2.20
2022-08-01T00:14:32.196Z,2.30
2022-08-01T00:17:07.199Z,1.90
2022-08-01T00:19:36.488Z,2.00
2022-08-01T00:22:05.264Z,2.10
2022-08-01T00:24:33.808Z,2.00
2022-08-01T00:27:02.168Z,2.10
2022-08-01T00:30:04.619Z,2.13
2022-08-01T00:32:20.399Z,1.77
2022-08-01T00:34:48.759Z,2.00
2022-08-01T00:37:18.270Z,2.13
2022-08-01T00:39:46.729Z,2.00
2022-08-01T00:42:15.883Z,1.95
2022-08-01T00:44:44.418Z,2.00
2022-08-01T00:47:12.963Z,1.80
2022-08-01T00:49:42.990Z,2.20
2022-08-01T00:52:12.179Z,2.10
2022-08-01T00:54:41.861Z,2.03
2022-08-01T00:57:10.924Z,2.00
2022-08-01T00:59:39.893Z,1.92
2022-08-01T01:02:15.357Z,2.10
2022-08-01T01:04:45.868Z,1.80
2022-08-01T01:07:21.929Z,1.98
2022-08-01T01:09:58.914Z,1.95
2022-08-01T01:12:38.208Z,2.10
2022-08-01T01:15:10.915Z,2.10
2022-08-01T01:17:51.056Z,2.00
2022-08-01T01:20:26.694Z,1.98
2022-08-01T01:23:08.398Z,2.00
2022-08-01T01:25:56.788Z,1.98
2022-08-01T01:28:36.045Z,1.80
2022-08-01T01:31:11.933Z,1.95
2022-08-01T01:33:47.151Z,1.80
2022-08-01T01:36:19.239Z,2.00
2022-08-01T01:38:49.278Z,1.95
2022-08-01T01:41:19.838Z,2.17
2022-08-01T01:43:58.379Z,1.80
2022-08-01T01:46:31.009Z,2.00
2022-08-01T01:49:01.171Z,1.90
2022-08-01T01:51:32.110Z,1.80
2022-08-01T01:54:02.178Z,1.90
2022-08-01T01:56:32.308Z,1.90
2022-08-01T01:59:05.043Z,1.90
2022-08-01T02:01:58.189Z,1.85
2022-08-01T02:04:29.532Z,2.05
2022-08-01T02:06:59.659Z,1.90
2022-08-01T02:09:30.045Z,1.90
2022-08-01T02:12:07.808Z,2.05
2022-08-01T02:14:41.208Z,1.95
2022-08-01T02:17:13.443Z,1.90
2022-08-01T02:19:42.858Z,2.00
2022-08-01T02:22:14.080Z,2.00
2022-08-01T02:24:47.382Z,2.10
2022-08-01T02:27:19.589Z,1.95
2022-08-01T02:29:55.663Z,2.03
2022-08-01T02:32:33.048Z,1.92
2022-08-01T02:35:04.819Z,1.77
2022-08-01T02:37:36.840Z,2.30
2022-08-01T02:40:06.789Z,2.10
2022-08-01T02:42:39.089Z,2.10
2022-08-01T02:45:10.360Z,2.00
2022-08-01T02:47:42.521Z,2.10
2022-08-01T02:50:14.780Z,1.90
2022-08-01T02:52:46.290Z,2.00
2022-08-01T02:55:16.404Z,2.08
2022-08-01T02:57:52.260Z,2.00
2022-08-01T03:00:23.627Z,1.88
2022-08-01T03:02:57.070Z,2.00
2022-08-01T03:05:28.100Z,1.77
2022-08-01T03:08:01.401Z,1.80
2022-08-01T03:13:03.871Z,1.80
2022-08-01T03:15:34.661Z,2.00
2022-08-01T03:18:06.890Z,1.67
2022-08-01T03:20:36.641Z,2.15
2022-08-01T03:23:08.431Z,1.90
2022-08-01T03:25:40.900Z,1.70
2022-08-01T03:28:11.302Z,1.73
2022-08-01T03:30:41.810Z,1.85
2022-08-01T03:33:14.530Z,1.92
2022-08-01T03:35:49.100Z,2.10
2022-08-01T03:38:22.692Z,1.80
2022-08-01T03:40:56.129Z,1.90
2022-08-01T03:43:32.902Z,2.00
2022-08-01T03:46:08.839Z,1.95
2022-08-01T03:48:43.170Z,2.05
2022-08-01T03:51:12.462Z,1.83
2022-08-01T03:53:44.674Z,2.13
2022-08-01T03:56:15.220Z,2.00
2022-08-01T03:58:44.850Z,2.10
2022-08-01T04:01:20.164Z,2.00
2022-08-01T04:03:51.003Z,1.88
2022-08-01T04:06:19.739Z,1.90
2022-08-01T04:08:56.790Z,1.90
2022-08-01T04:11:26.931Z,2.03
2022-08-01T04:13:56.301Z,1.90
2022-08-01T04:16:26.169Z,2.20
2022-08-01T04:18:56.051Z,2.08
2022-08-01T04:21:28.783Z,2.00
2022-08-01T04:24:01.246Z,1.65
2022-08-01T04:26:31.611Z,1.70
2022-08-01T04:29:00.761Z,2.10
2022-08-01T04:31:30.980Z,2.15
2022-08-01T04:34:06.130Z,2.00
2022-08-01T04:36:37.604Z,2.05
2022-08-01T04:39:09.222Z,1.73
2022-08-01T04:41:38.882Z,2.20
2022-08-01T04:44:07.975Z,1.85
2022-08-01T04:46:38.105Z,2.10
2022-08-01T04:49:10.377Z,2.15
2022-08-01T04:51:38.841Z,1.77
2022-08-01T04:54:08.560Z,1.80
2022-08-01T04:56:36.930Z,1.92
2022-08-01T04:59:22.520Z,1.90
2022-08-01T05:01:52.280Z,2.10
2022-08-01T05:04:22.135Z,1.92
2022-08-01T05:06:50.540Z,1.98
2022-08-01T05:09:18.941Z,2.00
2022-08-01T05:11:47.335Z,1.80
2022-08-01T05:14:15.760Z,2.00
2022-08-01T05:16:44.190Z,2.03
2022-08-01T05:19:12.671Z,2.10
2022-08-01T05:21:42.569Z,2.10
2022-08-01T05:24:10.950Z,1.92
2022-08-01T05:26:40.259Z,1.75
2022-08-01T05:29:08.840Z,2.08
2022-08-01T05:31:37.303Z,2.20
2022-08-01T05:34:06.042Z,1.83
2022-08-01T05:36:44.936Z,2.05
2022-08-01T05:39:14.206Z,1.90
2022-08-01T05:41:43.361Z,2.00
2022-08-01T05:44:12.300Z,2.10
2022-08-01T05:46:40.983Z,1.90
2022-08-01T05:49:09.567Z,2.03
2022-08-01T05:51:38.030Z,2.03
2022-08-01T05:54:08.399Z,1.80
2022-08-01T05:56:38.650Z,1.90
2022-08-01T05:59:07.022Z,1.98
2022-08-01T06:01:35.540Z,2.00
2022-08-01T06:04:04.025Z,2.00
2022-08-01T06:06:32.566Z,1.92
2022-08-01T06:09:00.900Z,2.03
2022-08-01T06:11:30.775Z,1.90
2022-08-01T06:13:59.282Z,2.05
2022-08-01T06:16:27.678Z,2.00
2022-08-01T06:18:56.910Z,2.00
2022-08-01T06:21:25.529Z,1.83
2022-08-01T06:23:55.290Z,2.17
2022-08-01T06:26:23.700Z,1.92
2022-08-01T06:28:53.542Z,2.10
2022-08-01T06:31:22.105Z,1.80
2022-08-01T06:33:50.615Z,2.17
2022-08-01T06:36:19.050Z,2.00
2022-08-01T06:38:47.505Z,1.90
2022-08-01T06:41:15.939Z,2.00
2022-08-01T06:43:44.401Z,2.08
2022-08-01T06:46:14.377Z,2.00
2022-08-01T06:48:43.800Z,2.10
2022-08-01T06:51:15.010Z,1.98
2022-08-01T06:53:43.392Z,2.10
2022-08-01T06:56:12.490Z,2.20
2022-08-01T06:58:41.080Z,2.28
2022-08-01T07:01:09.533Z,2.30
2022-08-01T07:03:54.127Z,2.22
2022-08-01T07:06:24.191Z,2.10
2022-08-01T07:08:52.959Z,1.95
2022-08-01T07:11:21.469Z,2.33
2022-08-01T07:13:49.911Z,2.17
2022-08-01T07:16:19.060Z,2.22
2022-08-01T07:18:48.934Z,2.33
2022-08-01T07:21:39.319Z,2.30
2022-08-01T07:24:13.109Z,2.10
2022-08-01T07:26:52.420Z,2.17
2022-08-01T07:29:24.058Z,2.10
2022-08-01T07:31:52.772Z,2.20
2022-08-01T07:34:22.700Z,2.10
2022-08-01T07:36:51.489Z,2.28
2022-08-01T07:39:19.967Z,2.10
2022-08-01T07:42:05.703Z,2.20
2022-08-01T07:44:36.392Z,2.30
2022-08-01T07:47:05.194Z,2.10
2022-08-01T07:49:40.001Z,2.17
2022-08-01T07:52:09.011Z,2.10
2022-08-01T07:54:37.633Z,2.20
2022-08-01T07:57:06.669Z,2.22
2022-08-01T07:59:35.151Z,2.05
2022-08-01T08:02:03.787Z,2.10
2022-08-01T08:04:32.510Z,2.10
2022-08-01T08:07:02.375Z,2.30
2022-08-01T08:09:30.970Z,2.00
2022-08-01T08:12:07.175Z,2.20
2022-08-01T08:14:36.029Z,2.10
2022-08-01T08:17:05.080Z,2.20
2022-08-01T08:19:38.334Z,2.20
2022-08-01T08:22:10.272Z,2.22
2022-08-01T08:24:46.041Z,2.30
2022-08-01T08:27:16.250Z,2.20
2022-08-01T08:29:45.214Z,2.40
2022-08-01T08:32:13.816Z,2.17
2022-08-01T08:34:42.345Z,2.45
2022-08-01T08:37:12.895Z,2.05
2022-08-01T08:39:42.718Z,2.22
2022-08-01T08:42:11.956Z,2.50
2022-08-01T08:44:43.670Z,2.28
2022-08-01T08:47:19.309Z,2.40
2022-08-01T08:49:49.843Z,2.10
2022-08-01T08:52:21.317Z,2.30
2022-08-01T08:54:51.435Z,2.10
2022-08-01T08:57:22.354Z,2.30
2022-08-01T08:59:53.185Z,2.25
2022-08-01T09:02:22.481Z,2.35
2022-08-01T09:04:51.776Z,2.13
2022-08-01T09:07:21.765Z,2.10
2022-08-01T09:09:51.590Z,1.98
2022-08-01T09:12:21.585Z,2.15
2022-08-01T09:14:51.439Z,2.03
2022-08-01T09:17:19.995Z,2.22
2022-08-01T09:19:52.446Z,2.20
2022-08-01T09:22:26.894Z,2.20
2022-08-01T09:25:09.749Z,2.10
2022-08-01T09:27:44.260Z,2.10
2022-08-01T09:30:17.172Z,2.10
2022-08-01T09:32:58.431Z,2.28
2022-08-01T09:35:30.914Z,2.05
2022-08-01T09:38:18.381Z,2.20
2022-08-01T09:40:51.640Z,2.22
2022-08-01T09:43:20.889Z,2.35
2022-08-01T09:45:53.268Z,2.30
2022-08-01T09:48:28.832Z,2.30
2022-08-01T09:51:07.163Z,2.22
2022-08-01T09:53:53.379Z,2.20
2022-08-01T09:56:24.618Z,2.10
2022-08-01T09:59:01.573Z,2.30
2022-08-01T10:01:36.813Z,2.38
2022-08-01T10:04:11.665Z,2.15
2022-08-01T10:06:41.728Z,2.10
2022-08-01T10:09:12.627Z,2.20
2022-08-01T10:11:45.008Z,2.10
2022-08-01T10:14:17.808Z,2.40
2022-08-01T10:16:53.508Z,2.10
2022-08-01T10:19:28.721Z,2.30
2022-08-01T10:22:00.043Z,2.17
2022-08-01T10:24:33.391Z,2.20
2022-08-01T10:27:09.491Z,2.28
2022-08-01T10:30:05.302Z,2.33
2022-08-01T10:32:36.235Z,2.08
2022-08-01T10:35:07.427Z,2.20
2022-08-01T10:37:51.945Z,2.40
2022-08-01T10:40:31.552Z,2.20
2022-08-01T10:43:00.715Z,2.20
2022-08-01T10:45:30.271Z,2.20
2022-08-01T10:48:06.919Z,2.20
2022-08-01T10:50:48.521Z,2.20
2022-08-01T10:53:24.137Z,2.45
2022-08-01T10:56:05.566Z,2.40
2022-08-01T10:58:42.508Z,2.10
2022-08-01T11:01:27.709Z,2.20
2022-08-01T11:04:11.457Z,2.30
2022-08-01T11:06:55.032Z,2.30
2022-08-01T11:09:36.463Z,3.03
2022-08-01T11:12:12.867Z,2.63
2022-08-01T11:15:29.231Z,2.40
2022-08-01T11:18:03.426Z,2.45
2022-08-01T11:20:36.059Z,2.20
2022-08-01T11:23:21.768Z,2.35
2022-08-01T11:26:11.985Z,2.58
2022-08-01T11:29:04.742Z,2.88
2022-08-01T11:31:37.535Z,2.50
2022-08-01T11:34:07.468Z,2.35
2022-08-01T11:37:13.412Z,2.80
2022-08-01T11:40:19.430Z,2.90
2022-08-01T11:42:55.336Z,2.75
2022-08-01T11:45:52.324Z,2.83
2022-08-01T11:48:21.626Z,2.78
2022-08-01T11:50:57.037Z,2.85
2022-08-01T11:53:26.872Z,2.70
2022-08-01T11:55:56.224Z,2.90
2022-08-01T11:58:29.217Z,2.80
2022-08-01T12:01:01.119Z,2.70
2022-08-01T12:03:33.633Z,2.42
2022-08-01T12:06:02.572Z,2.60
2022-08-01T12:08:34.127Z,2.70
2022-08-01T12:11:03.909Z,2.30
2022-08-01T12:13:43.231Z,3.35
2022-08-01T12:16:14.004Z,2.50
2022-08-01T12:18:43.675Z,2.30
2022-08-01T12:21:12.161Z,2.20
2022-08-01T12:23:40.700Z,2.10
2022-08-01T12:26:09.164Z,2.15
2022-08-01T12:28:57.495Z,2.00
2022-08-01T12:31:36.147Z,2.30
2022-08-01T12:34:30.224Z,2.10
2022-08-01T12:37:01.304Z,1.73
2022-08-01T12:39:34.584Z,2.40
2022-08-01T12:42:03.481Z,2.17
2022-08-01T12:44:33.167Z,2.13
2022-08-01T12:47:04.364Z,2.28
2022-08-01T12:49:35.127Z,2.30
2022-08-01T12:52:04.244Z,2.10
2022-08-01T12:54:32.795Z,2.10
2022-08-01T12:57:01.260Z,2.20
2022-08-01T12:59:31.616Z,2.03
2022-08-01T13:02:12.420Z,2.50
2022-08-01T13:04:53.015Z,2.28
2022-08-01T13:07:21.564Z,2.10
2022-08-01T13:09:52.944Z,2.05
2022-08-01T13:12:21.514Z,2.30
2022-08-01T13:14:50.094Z,70.30
2022-08-01T13:17:37.134Z,85.53
2022-08-01T13:20:06.706Z,93.75
2022-08-01T13:22:35.795Z,124.25
2022-08-01T13:25:18.636Z,146.02
2022-08-01T13:27:53.991Z,171.63
2022-08-01T13:30:24.166Z,167.73
2022-08-01T13:33:02.054Z,140.68
2022-08-01T13:35:31.006Z,134.48
2022-08-01T13:37:59.465Z,117.60
2022-08-01T13:40:29.616Z,111.45
2022-08-01T13:42:57.985Z,118.05
2022-08-01T13:45:26.547Z,105.93
2022-08-01T13:48:12.006Z,105.90
2022-08-01T13:50:42.558Z,104.18
2022-08-01T13:53:11.095Z,93.57
2022-08-01T13:55:39.864Z,75.65
2022-08-01T13:58:08.944Z,77.65
2022-08-01T14:00:39.754Z,81.28
2022-08-01T14:03:08.145Z,73.82
2022-08-01T14:05:36.709Z,76.03
2022-08-01T14:08:07.168Z,61.33
2022-08-01T14:10:35.598Z,61.13
2022-08-01T14:13:04.484Z,53.35
2022-08-01T14:15:37.601Z,59.40
2022-08-01T14:18:08.044Z,46.20
2022-08-01T14:20:40.748Z,49.78
2022-08-01T14:23:13.585Z,52.42
2022-08-01T14:26:00.676Z,53.95
2022-08-01T14:28:31.503Z,51.65
2022-08-01T14:31:00.884Z,48.50
2022-08-01T14:33:29.543Z,43.38
2022-08-01T14:36:06.181Z,28.33
2022-08-01T14:38:48.125Z,30.55
2022-08-01T14:41:17.337Z,30.25
2022-08-01T14:43:45.756Z,31.58
2022-08-01T14:46:14.399Z,26.80
2022-08-01T14:48:43.035Z,23.38
2022-08-01T14:51:11.559Z,24.73
2022-08-01T14:53:44.229Z,22.30
2022-08-01T14:56:16.643Z,19.80
2022-08-01T14:58:45.224Z,21.13
2022-08-01T15:01:13.951Z,17.45
2022-08-01T15:03:42.434Z,17.67
2022-08-01T15:06:12.587Z,15.85
2022-08-01T15:08:41.455Z,16.30
2022-08-01T15:11:10.036Z,14.93
2022-08-01T15:13:42.572Z,15.30
2022-08-01T15:16:12.046Z,15.23
2022-08-01T15:18:40.795Z,15.02
2022-08-01T15:21:14.442Z,14.38
2022-08-01T15:23:49.455Z,16.00
2022-08-01T15:26:17.884Z,14.75
2022-08-01T15:28:47.687Z,12.85
2022-08-01T15:31:16.265Z,13.60
2022-08-01T15:33:44.664Z,13.20
2022-08-01T15:36:15.578Z,12.57
2022-08-01T15:38:44.157Z,11.85
2022-08-01T15:41:12.626Z,11.48
2022-08-01T15:43:44.304Z,12.00
2022-08-01T15:46:15.409Z,10.82
2022-08-01T15:48:43.805Z,11.48
2022-08-01T15:51:12.386Z,9.98
2022-08-01T15:53:41.565Z,9.38
2022-08-01T15:56:10.056Z,11.02
2022-08-01T15:58:38.495Z,8.98
2022-08-01T16:01:07.084Z,10.18
2022-08-01T16:03:36.997Z,8.00
2022-08-01T16:06:05.835Z,7.75
2022-08-01T16:08:34.306Z,8.15
2022-08-01T16:11:03.340Z,8.68
2022-08-01T16:13:31.854Z,7.10
2022-08-01T16:16:00.496Z,7.18
2022-08-01T16:18:28.964Z,7.35
2022-08-01T16:20:59.071Z,5.88
2022-08-01T16:23:27.945Z,5.72
2022-08-01T16:25:56.554Z,6.43
2022-08-01T16:28:25.289Z,7.80
2022-08-01T16:31:05.139Z,5.25
2022-08-01T16:33:53.318Z,6.90
2022-08-01T16:36:25.380Z,6.35
2022-08-01T16:38:55.465Z,6.15
2022-08-01T16:41:23.966Z,6.72
2022-08-01T16:43:53.127Z,5.75
2022-08-01T16:46:24.048Z,5.53
2022-08-01T16:48:56.674Z,5.53
2022-08-01T16:51:47.949Z,6.30
2022-08-01T16:54:24.846Z,5.82
2022-08-01T16:56:54.805Z,6.15
2022-08-01T16:59:25.699Z,6.28
2022-08-01T17:02:00.167Z,5.90
2022-08-01T17:04:30.283Z,5.68
2022-08-01T17:07:00.484Z,5.78
2022-08-01T17:09:28.959Z,5.25
2022-08-01T17:11:57.565Z,5.22
2022-08-01T17:14:26.065Z,5.35
2022-08-01T17:16:54.467Z,5.43
2022-08-01T17:19:33.077Z,5.18
2022-08-01T17:22:03.479Z,5.15
2022-08-01T17:24:32.061Z,5.60
2022-08-01T17:27:00.544Z,4.00
2022-08-01T17:29:29.005Z,4.28
2022-08-01T17:32:12.742Z,4.03
2022-08-01T17:34:41.294Z,4.15
2022-08-01T17:37:11.625Z,4.07
2022-08-01T17:39:40.490Z,4.13
2022-08-01T17:42:09.635Z,3.90
2022-08-01T17:44:38.164Z,3.97
2022-08-01T17:47:07.372Z,4.93
2022-08-01T17:52:29.815Z,4.95
2022-08-01T17:54:58.739Z,3.95
2022-08-01T17:57:27.670Z,3.78
2022-08-01T17:59:56.439Z,4.55
2022-08-01T18:02:25.029Z,4.00
2022-08-01T18:04:53.889Z,5.70
2022-08-01T18:08:01.271Z,4.32
2022-08-01T18:10:13.072Z,3.72
2022-08-01T18:12:45.404Z,3.63
2022-08-01T18:15:15.288Z,3.80
2022-08-01T18:17:44.139Z,4.10
2022-08-01T18:20:13.762Z,3.70
2022-08-01T18:22:42.734Z,3.25
2022-08-01T18:25:13.199Z,3.25
2022-08-01T18:28:16.404Z,3.22
2022-08-01T18:30:30.359Z,3.22
2022-08-01T18:32:58.869Z,3.40
2022-08-01T18:35:51.534Z,3.20
2022-08-01T18:38:16.750Z,2.90
2022-08-01T18:40:47.110Z,3.00
2022-08-01T18:43:15.680Z,2.80
2022-08-01T18:45:44.151Z,3.13
2022-08-01T18:48:12.796Z,2.90
2022-08-01T18:50:41.511Z,2.97
2022-08-01T18:53:10.667Z,2.90
2022-08-01T18:55:39.170Z,2.65
2022-08-01T18:58:09.100Z,2.65
2022-08-01T19:00:37.552Z,2.70
2022-08-01T19:03:06.010Z,2.90
2022-08-01T19:05:35.044Z,2.92
2022-08-01T19:08:07.763Z,3.38
2022-08-01T19:10:36.855Z,2.60
2022-08-01T19:13:05.753Z,2.67
2022-08-01T19:15:39.579Z,2.42
2022-08-01T19:18:09.520Z,2.88
2022-08-01T19:20:42.962Z,2.75
2022-08-01T19:23:29.914Z,2.53
2022-08-01T19:26:00.301Z,2.78
2022-08-01T19:28:29.389Z,2.40
2022-08-01T19:31:03.599Z,2.40
2022-08-01T19:33:33.781Z,2.70
2022-08-01T19:36:02.812Z,2.40
2022-08-01T19:39:14.190Z,2.53
2022-08-01T19:41:47.090Z,2.47
2022-08-01T19:44:18.210Z,2.30
2022-08-01T19:46:48.351Z,2.30
2022-08-01T19:49:18.514Z,2.20
2022-08-01T19:51:50.777Z,2.20
2022-08-01T19:54:21.880Z,1.95
2022-08-01T19:56:51.455Z,2.08
2022-08-01T19:59:21.206Z,2.17
2022-08-01T20:01:54.639Z,2.40
2022-08-01T20:04:23.380Z,2.40
2022-08-01T20:06:56.940Z,2.88
2022-08-01T20:09:26.843Z,2.60
2022-08-01T20:12:01.310Z,2.30
2022-08-01T20:14:32.966Z,2.42
2022-08-01T20:17:43.143Z,2.30
2022-08-01T20:20:13.159Z,2.17
2022-08-01T20:22:43.710Z,2.17
2022-08-01T20:25:13.417Z,2.20
2022-08-01T20:27:45.999Z,2.25
2022-08-01T20:30:36.097Z,2.17
2022-08-01T20:33:08.090Z,2.38
2022-08-01T20:35:53.352Z,2.30
2022-08-01T20:38:24.078Z,2.40
2022-08-01T20:40:54.189Z,2.30
2022-08-01T20:43:23.827Z,2.30
2022-08-01T20:45:52.755Z,2.20
2022-08-01T20:48:23.190Z,3.33
2022-08-01T20:51:09.021Z,2.50
2022-08-01T20:53:41.109Z,2.35
2022-08-01T20:56:16.599Z,2.35
2022-08-01T20:59:02.920Z,2.47
2022-08-01T21:01:35.579Z,2.33
2022-08-01T21:08:36.850Z,2.47
2022-08-01T21:11:07.530Z,2.25
2022-08-01T21:13:40.515Z,2.25
2022-08-01T21:16:23.288Z,2.85
2022-08-01T21:19:19.226Z,2.35
2022-08-01T21:21:59.351Z,2.40
2022-08-01T21:24:36.230Z,2.67
2022-08-01T21:27:07.727Z,2.40
2022-08-01T21:29:37.910Z,2.63
2022-08-01T21:32:15.733Z,2.22
2022-08-01T21:34:48.387Z,2.60
2022-08-01T21:37:18.840Z,2.50
2022-08-01T21:39:48.540Z,2.30
2022-08-01T21:42:19.264Z,2.95
2022-08-01T21:44:48.980Z,2.40
2022-08-01T21:47:17.430Z,2.50
2022-08-01T21:49:45.970Z,2.70
2022-08-01T21:52:21.447Z,2.80
2022-08-01T21:55:05.530Z,3.20
2022-08-01T21:57:54.983Z,3.00
2022-08-01T22:00:25.533Z,2.50
2022-08-01T22:03:04.135Z,2.58
2022-08-01T22:05:50.168Z,2.60
2022-08-01T22:08:26.002Z,2.80
2022-08-01T22:10:59.995Z,2.90
2022-08-01T22:13:29.032Z,2.70
2022-08-01T22:15:58.863Z,3.00
2022-08-01T22:18:29.110Z,2.58
2022-08-01T22:20:57.823Z,3.17
2022-08-01T22:23:26.362Z,2.58
2022-08-01T22:25:56.763Z,2.80
2022-08-01T22:28:26.942Z,2.80
2022-08-01T22:30:56.281Z,2.75
2022-08-01T22:33:25.510Z,2.70
2022-08-01T22:35:54.831Z,2.60
2022-08-01T22:38:30.916Z,2.60
2022-08-01T22:41:06.142Z,2.55
2022-08-01T22:43:47.015Z,2.60
2022-08-01T22:46:32.246Z,2.85
2022-08-01T22:49:16.364Z,2.70
2022-08-01T22:51:56.035Z,2.40
2022-08-01T22:54:31.252Z,2.90
2022-08-01T22:57:07.111Z,2.60
2022-08-01T22:59:48.071Z,2.50
2022-08-01T23:02:18.053Z,2.75
2022-08-01T23:04:48.890Z,2.63
2022-08-01T23:07:23.490Z,2.40
2022-08-01T23:09:55.239Z,2.40
2022-08-01T23:12:34.931Z,2.55
2022-08-01T23:15:16.750Z,2.55
2022-08-01T23:18:01.290Z,2.30
2022-08-01T23:20:48.480Z,2.40
2022-08-01T23:23:37.515Z,2.60
2022-08-01T23:26:22.146Z,2.72
2022-08-01T23:28:56.992Z,2.65
2022-08-01T23:32:00.430Z,2.60
2022-08-01T23:34:20.161Z,2.47
2022-08-01T23:36:50.221Z,2.50
2022-08-01T23:39:18.620Z,2.83
2022-08-01T23:41:58.530Z,2.83
2022-08-01T23:44:47.631Z,2.80
2022-08-01T23:47:19.180Z,2.67
2022-08-01T23:49:53.776Z,2.70
2022-08-01T23:52:22.882Z,2.50
2022-08-01T23:54:57.962Z,2.50
2022-08-01T23:57:41.265Z,2.38
